Tropical Cyclones
[Index]
Main Index Home Page Stock Weather Photos Extreme Storms Discussion Storm News and Storm Chasing Reports Tropical Cyclones / Hurricanes / Typhoons Weather Data and Links Wild Fires / Bushfires Weather Observation Techniques Weather Picture Catalogue Tornado Pictures and Reports Stock Video Footage and DVDs for sale
Season 2013-2014 Tropical Cyclone ITA Track Map
Season 2013-2014 Summaries: [BoM-AU] [JTWC-AU] [JTWC-SIO] [JTWC-SPAC] [JTWC-SH]
<<- Previous TC | BoM 2013-2014 Season | Next TC ->>

click for intensity scale information  Lat/long Grid: Show Hide

 Date Labels: Show Hide

Bureau of Meteorology Tropical Cyclone Data

Name: ITA
Number: 979 / 201314_15

02 Apr 2014 00:00 UTC to 15 Apr 2014 12:00 UTC

    date/time    lat    long    hPa   cat  kts
2014-04-02 00   10.6   158.9                            
2014-04-02 06   10.4   159.0                            
2014-04-02 12   10.2   158.7                            
2014-04-02 18   10.3   158.6                            
2014-04-03 00   10.9   158.8   1003         25          
2014-04-03 06   11.0   158.8   1001         25          
2014-04-03 12   10.5   158.5   1002         25          
2014-04-03 18   10.4   158.3   1001         25          
2014-04-04 00   11.0   158.1   1000         25          
2014-04-04 06   11.4   157.0    999         25          
2014-04-04 12   11.4   156.7    999         25          
2014-04-04 18   11.6   156.5    998         30          
2014-04-05 00   11.8   156.4    997         35          
2014-04-05 06   11.9   156.2    997         35          
2014-04-05 12   12.0   155.8    998         35          
2014-04-05 18   12.2   155.1    998         30          
2014-04-06 00   12.2   154.1    998         30          
2014-04-06 06   12.2   154.0    998         30          
2014-04-06 12   12.2   153.8    998         25          
2014-04-06 18   12.3   153.6    998         30          
2014-04-07 00   12.2   153.5    997         35          
2014-04-07 06   12.1   153.6    991    1    45          
2014-04-07 12   11.9   153.5    990    1    50          
2014-04-07 18   11.8   153.2    988    1    50          
2014-04-08 00   11.7   152.9    990    1    50          
2014-04-08 06   11.5   152.7    985    2    55          
2014-04-08 12   11.4   152.4    987    1    55          
2014-04-08 18   11.4   152.0    981    2    60          
2014-04-09 00   11.3   151.0    985    2    60          
2014-04-09 06   11.3   150.4    978    2    65          
2014-04-09 12   11.4   149.5    981    2    65          
2014-04-09 18   11.6   148.7    975    2    70          
2014-04-10 00   12.1   147.9    960    3    90          
2014-04-10 06   12.6   147.1    937    4    110          
2014-04-10 12   12.8   146.4    927    5    120          
2014-04-10 18   13.3   146.0    922    5    120          
2014-04-11 00   13.7   145.7    935    4    110          
2014-04-11 06   14.4   145.4    948    4    95          
2014-04-11 11   14.9   145.3                90          
2014-04-11 12   15.0   145.3    955    4    80          
2014-04-11 18   15.5   145.0    975    2    55          
2014-04-12 00   15.9   145.0    989    1    45          
2014-04-12 06   16.5   145.3    991    1    35          
2014-04-12 12   17.2   145.8    996         30          
2014-04-12 18   18.1   146.1    995    1    30          
2014-04-13 00   19.1   147.0    995    1    30          
2014-04-13 06   20.1   148.4    989    1    30          
2014-04-13 09   20.4   149.2    993    1    35          
2014-04-13 12   20.8   150.2    993    1    45          
2014-04-13 18   21.8   151.5    995    1    40          
2014-04-14 00   22.7   153.2    995    1    40          
2014-04-14 06   23.6   155.0    994    1    45          
2014-04-14 12   24.6   156.8    994    1    50          
2014-04-14 18   25.3   157.9    995    1    45          
2014-04-15 00   25.9   158.8    997         35          
2014-04-15 06   26.2   159.9    998         25          
2014-04-15 12   26.4   160.6                            
Winds are 10-min average.

Tropical cyclone tracks developed by Michael Bath using data from the Bureau of Meteorology and Google Maps.


[Australian Severe Weather index] [Copyright Notice] [Email Contacts] [Search This Site] [Privacy Policy]
Document: tropical_cyclone_ita.htm Updated: 29 June 2017